createdAt,value
2018-10-17T00:00:25.105Z,27.70
2018-10-17T00:02:53.052Z,24.37
2018-10-17T00:05:20.369Z,25.85
2018-10-17T00:07:48.104Z,27.82
2018-10-17T00:10:15.494Z,24.98
2018-10-17T00:12:47.568Z,28.45
2018-10-17T00:15:14.935Z,26.82
2018-10-17T00:17:42.330Z,25.95
2018-10-17T00:20:11.170Z,28.12
2018-10-17T00:22:39.347Z,29.80
2018-10-17T00:25:07.117Z,25.97
2018-10-17T00:27:34.472Z,27.27
2018-10-17T00:30:01.819Z,28.20
2018-10-17T00:32:29.284Z,27.45
2018-10-17T00:34:56.630Z,28.25
2018-10-17T00:37:24.019Z,27.35
2018-10-17T00:39:52.019Z,38.17
2018-10-17T00:42:19.444Z,27.42
2018-10-17T00:44:46.841Z,28.00
2018-10-17T00:47:14.300Z,27.90
2018-10-17T00:49:41.578Z,28.50
2018-10-17T00:52:08.925Z,27.90
2018-10-17T00:54:36.310Z,28.90
2018-10-17T00:57:03.699Z,28.77
2018-10-17T00:59:31.222Z,28.92
2018-10-17T01:01:58.524Z,29.92
2018-10-17T01:04:26.072Z,30.48
2018-10-17T01:06:53.711Z,28.23
2018-10-17T01:09:21.950Z,27.95
2018-10-17T01:11:49.324Z,29.15
2018-10-17T01:14:17.142Z,28.00
2018-10-17T01:16:44.428Z,27.75
2018-10-17T01:19:12.010Z,28.50
2018-10-17T01:21:40.199Z,26.50
2018-10-17T01:24:07.945Z,27.02
2018-10-17T01:26:35.288Z,29.40
2018-10-17T01:29:03.242Z,28.77
2018-10-17T01:31:30.560Z,28.05
2018-10-17T01:33:57.912Z,31.87
2018-10-17T01:38:56.671Z,30.88
2018-10-17T01:41:24.200Z,28.65
2018-10-17T01:43:51.589Z,28.70
2018-10-17T01:46:23.154Z,31.12
2018-10-17T01:48:51.009Z,29.57
2018-10-17T01:51:18.457Z,31.00
2018-10-17T01:53:45.834Z,28.57
2018-10-17T01:56:13.639Z,29.45
2018-10-17T01:58:41.656Z,26.33
2018-10-17T02:01:09.105Z,30.45
2018-10-17T02:03:36.900Z,30.72
2018-10-17T02:06:09.470Z,28.62
2018-10-17T02:08:37.569Z,29.55
2018-10-17T02:11:07.182Z,30.97
2018-10-17T02:13:35.218Z,29.10
2018-10-17T02:16:02.601Z,27.60
2018-10-17T02:18:29.963Z,27.17
2018-10-17T02:20:57.559Z,30.12
2018-10-17T02:23:25.967Z,28.50
2018-10-17T02:25:53.455Z,28.07
2018-10-17T02:28:21.566Z,29.07
2018-10-17T02:30:48.901Z,30.65
2018-10-17T02:33:16.279Z,29.82
2018-10-17T02:35:45.198Z,30.80
2018-10-17T02:38:12.574Z,31.33
2018-10-17T02:40:40.087Z,28.23
2018-10-17T02:43:07.541Z,32.75
2018-10-17T02:45:34.894Z,31.48
2018-10-17T02:48:02.250Z,29.98
2018-10-17T02:50:30.359Z,33.23
2018-10-17T02:53:01.928Z,30.75
2018-10-17T02:55:29.277Z,28.62
2018-10-17T02:57:56.673Z,32.38
2018-10-17T03:00:25.330Z,27.93
2018-10-17T03:02:52.719Z,28.65
2018-10-17T03:05:20.114Z,30.37
2018-10-17T03:07:47.546Z,31.50
2018-10-17T03:10:15.591Z,30.40
2018-10-17T03:12:43.536Z,28.70
2018-10-17T03:15:10.921Z,29.55
2018-10-17T03:17:38.310Z,29.55
2018-10-17T03:20:06.650Z,28.67
2018-10-17T03:22:34.016Z,29.52
2018-10-17T03:25:01.535Z,29.72
2018-10-17T03:27:28.879Z,28.73
2018-10-17T03:29:56.242Z,31.80
2018-10-17T03:32:23.672Z,28.47
2018-10-17T03:34:52.280Z,29.50
2018-10-17T03:37:20.035Z,30.88
2018-10-17T03:39:48.790Z,27.48
2018-10-17T03:42:16.242Z,27.37
2018-10-17T03:44:49.044Z,26.90
2018-10-17T03:47:16.642Z,28.07
2018-10-17T03:49:48.570Z,29.05
2018-10-17T03:52:16.431Z,27.07
2018-10-17T03:54:43.817Z,27.45
2018-10-17T03:57:12.490Z,29.37
2018-10-17T03:59:40.091Z,30.48
2018-10-17T04:02:07.663Z,31.40
2018-10-17T04:04:35.651Z,27.77
2018-10-17T04:07:03.829Z,27.25
2018-10-17T04:09:31.241Z,27.40
2018-10-17T04:11:59.131Z,28.75
2018-10-17T04:14:27.096Z,29.65
2018-10-17T04:16:54.560Z,28.25
2018-10-17T04:19:21.931Z,28.57
2018-10-17T04:21:53.988Z,29.72
2018-10-17T04:24:21.490Z,29.18
2018-10-17T04:26:53.927Z,29.60
2018-10-17T04:29:21.392Z,30.95
2018-10-17T04:31:48.790Z,29.20
2018-10-17T04:34:16.888Z,28.40
2018-10-17T04:36:44.252Z,28.70
2018-10-17T04:39:16.418Z,31.52
2018-10-17T04:41:45.086Z,29.37
2018-10-17T04:44:13.180Z,31.33
2018-10-17T04:46:40.943Z,29.87
2018-10-17T04:49:09.757Z,30.88
2018-10-17T04:51:37.225Z,29.12
2018-10-17T04:54:05.149Z,28.60
2018-10-17T04:56:33.370Z,30.35
2018-10-17T04:59:00.870Z,28.12
2018-10-17T05:01:28.453Z,27.52
2018-10-17T05:03:57.837Z,27.70
2018-10-17T05:06:29.465Z,29.25
2018-10-17T05:08:56.896Z,28.98
2018-10-17T05:11:25.612Z,30.20
2018-10-17T05:13:54.142Z,33.20
2018-10-17T05:16:27.396Z,30.30
2018-10-17T05:21:22.670Z,28.27
2018-10-17T05:23:50.217Z,27.73
2018-10-17T05:26:18.748Z,27.85
2018-10-17T05:31:13.776Z,30.32
2018-10-17T05:33:41.138Z,31.25
2018-10-17T05:36:08.469Z,29.70
2018-10-17T05:38:35.754Z,29.70
2018-10-17T05:41:03.303Z,29.92
2018-10-17T05:43:30.800Z,27.93
2018-10-17T05:45:58.360Z,29.25
2018-10-17T05:48:25.832Z,29.00
2018-10-17T05:50:53.295Z,29.55
2018-10-17T05:53:21.082Z,30.30
2018-10-17T05:55:48.494Z,29.95
2018-10-17T05:58:16.156Z,27.70
2018-10-17T06:00:47.659Z,27.17
2018-10-17T06:03:15.495Z,27.87
2018-10-17T06:05:44.154Z,29.72
2018-10-17T06:08:16.573Z,31.02
2018-10-17T06:10:44.347Z,30.57
2018-10-17T06:13:11.719Z,27.82
2018-10-17T06:15:39.078Z,27.75
2018-10-17T06:18:06.438Z,27.77
2018-10-17T06:20:33.740Z,28.12
2018-10-17T06:23:01.061Z,27.67
2018-10-17T06:25:28.386Z,29.70
2018-10-17T06:27:55.687Z,29.82
2018-10-17T06:30:22.950Z,29.10
2018-10-17T06:32:50.238Z,26.57
2018-10-17T06:35:17.551Z,28.25
2018-10-17T06:37:44.880Z,28.02
2018-10-17T06:40:12.190Z,27.70
2018-10-17T06:42:39.520Z,29.85
2018-10-17T06:45:06.834Z,28.87
2018-10-17T06:47:34.834Z,29.52
2018-10-17T06:50:02.126Z,27.70
2018-10-17T06:52:29.442Z,29.15
2018-10-17T06:54:56.820Z,29.72
2018-10-17T06:57:24.138Z,26.55
2018-10-17T06:59:51.447Z,36.70
2018-10-17T07:02:19.384Z,27.98
2018-10-17T07:04:46.642Z,29.37
2018-10-17T07:07:14.006Z,29.00
2018-10-17T07:09:41.240Z,29.77
2018-10-17T07:12:08.566Z,29.95
2018-10-17T07:14:35.842Z,29.18
2018-10-17T07:17:03.231Z,29.02
2018-10-17T07:19:30.531Z,26.87
2018-10-17T07:21:58.241Z,27.58
2018-10-17T07:24:25.582Z,29.80
2018-10-17T07:26:52.981Z,27.00
2018-10-17T07:29:20.318Z,28.75
2018-10-17T07:31:47.543Z,27.75
2018-10-17T07:34:14.854Z,26.15
2018-10-17T07:36:42.159Z,26.33
2018-10-17T07:39:10.244Z,27.30
2018-10-17T07:41:37.539Z,29.60
2018-10-17T07:44:05.155Z,28.15
2018-10-17T07:46:32.456Z,28.77
2018-10-17T07:48:59.748Z,24.35
2018-10-17T07:51:27.049Z,29.60
2018-10-17T07:53:54.357Z,28.83
2018-10-17T07:56:21.642Z,26.75
2018-10-17T07:58:48.959Z,26.87
2018-10-17T08:01:16.339Z,26.30
2018-10-17T08:03:43.594Z,26.35
2018-10-17T08:06:10.924Z,28.40
2018-10-17T08:08:38.201Z,24.90
2018-10-17T08:11:05.548Z,28.80
2018-10-17T08:13:32.837Z,25.43
2018-10-17T08:16:00.239Z,29.25
2018-10-17T08:18:27.606Z,27.65
2018-10-17T08:20:54.997Z,28.23
2018-10-17T08:23:22.334Z,26.27
2018-10-17T08:25:49.647Z,28.67
2018-10-17T08:28:16.938Z,27.80
2018-10-17T08:30:44.186Z,25.55
2018-10-17T08:33:11.530Z,29.20
2018-10-17T08:35:38.987Z,28.45
2018-10-17T08:38:06.259Z,27.35
2018-10-17T08:40:33.462Z,25.80
2018-10-17T08:43:00.774Z,28.05
2018-10-17T08:45:28.147Z,26.20
2018-10-17T08:47:55.430Z,23.50
2018-10-17T08:50:22.730Z,26.73
2018-10-17T08:52:50.050Z,24.92
2018-10-17T08:55:18.053Z,26.12
2018-10-17T08:57:45.433Z,24.10
2018-10-17T09:00:12.732Z,24.18
2018-10-17T09:02:40.052Z,24.72
2018-10-17T09:05:07.366Z,26.25
2018-10-17T09:07:34.648Z,25.73
2018-10-17T09:10:01.966Z,25.37
2018-10-17T09:12:29.238Z,27.93
2018-10-17T09:14:56.643Z,27.10
2018-10-17T09:17:23.935Z,24.50
2018-10-17T09:19:51.523Z,26.10
2018-10-17T09:22:18.847Z,27.03
2018-10-17T09:24:45.870Z,25.60
2018-10-17T09:27:13.153Z,26.63
2018-10-17T09:29:40.423Z,22.53
2018-10-17T09:32:07.734Z,25.90
2018-10-17T09:34:35.048Z,22.37
2018-10-17T09:37:02.329Z,23.73
2018-10-17T09:39:29.614Z,21.80
2018-10-17T09:41:56.958Z,21.33
2018-10-17T09:44:24.210Z,22.57
2018-10-17T09:46:51.512Z,23.60
2018-10-17T09:49:18.868Z,22.20
2018-10-17T09:51:46.150Z,22.23
2018-10-17T09:54:13.535Z,23.47
2018-10-17T09:56:41.373Z,21.93
2018-10-17T09:59:08.664Z,24.20
2018-10-17T10:01:41.416Z,22.00
2018-10-17T10:04:08.757Z,21.23
2018-10-17T10:06:36.059Z,22.03
2018-10-17T10:09:03.742Z,21.70
2018-10-17T10:11:31.015Z,24.47
2018-10-17T10:13:58.318Z,18.33
2018-10-17T10:16:25.725Z,18.03
2018-10-17T10:18:53.014Z,17.77
2018-10-17T10:21:20.307Z,20.47
2018-10-17T10:23:47.742Z,20.07
2018-10-17T10:26:14.906Z,20.77
2018-10-17T10:28:42.374Z,18.73
2018-10-17T10:31:09.511Z,19.87
2018-10-17T10:33:36.982Z,20.87
2018-10-17T10:36:04.356Z,19.63
2018-10-17T10:38:31.655Z,19.00
2018-10-17T10:40:59.010Z,19.70
2018-10-17T10:43:26.308Z,19.70
2018-10-17T10:45:53.619Z,22.17
2018-10-17T10:48:20.901Z,21.73
2018-10-17T10:50:48.199Z,20.37
2018-10-17T10:53:15.510Z,19.90
2018-10-17T10:55:43.327Z,20.33
2018-10-17T10:58:10.644Z,18.80
2018-10-17T11:00:37.926Z,20.40
2018-10-17T11:03:07.391Z,20.73
2018-10-17T11:05:34.870Z,19.97
2018-10-17T11:08:02.285Z,21.90
2018-10-17T11:10:30.387Z,20.17
2018-10-17T11:12:57.762Z,21.27
2018-10-17T11:15:25.181Z,18.90
2018-10-17T11:17:53.894Z,20.20
2018-10-17T11:20:21.293Z,22.00
2018-10-17T11:22:48.686Z,20.50
2018-10-17T11:25:16.105Z,18.03
2018-10-17T11:27:43.767Z,20.20
2018-10-17T11:30:12.207Z,19.07
2018-10-17T11:32:44.298Z,20.57
2018-10-17T11:35:11.922Z,20.90
2018-10-17T11:37:39.606Z,22.20
2018-10-17T11:40:07.169Z,20.40
2018-10-17T11:42:39.027Z,18.80
2018-10-17T11:45:07.711Z,20.27
2018-10-17T11:47:35.481Z,18.20
2018-10-17T11:50:03.918Z,19.80
2018-10-17T11:52:31.627Z,20.00
2018-10-17T11:54:59.016Z,21.20
2018-10-17T11:57:26.311Z,19.90
2018-10-17T11:59:53.611Z,20.33
2018-10-17T12:02:20.908Z,19.30
2018-10-17T12:04:48.440Z,21.90
2018-10-17T12:07:15.511Z,19.27
2018-10-17T12:09:42.807Z,20.27
2018-10-17T12:12:10.143Z,21.47
2018-10-17T12:14:37.866Z,19.40
2018-10-17T12:17:05.207Z,19.30
2018-10-17T12:19:32.478Z,20.53
2018-10-17T12:21:59.740Z,19.87
2018-10-17T12:24:27.029Z,21.10
2018-10-17T12:26:54.284Z,21.00
2018-10-17T12:29:21.579Z,20.13
2018-10-17T12:31:48.983Z,22.13
2018-10-17T12:34:16.655Z,20.50
2018-10-17T12:36:44.001Z,22.10
2018-10-17T12:39:12.989Z,18.80
2018-10-17T12:41:40.792Z,25.07
2018-10-17T12:44:07.974Z,19.87
2018-10-17T12:46:35.343Z,20.00
2018-10-17T12:49:02.651Z,17.77
2018-10-17T12:51:30.027Z,22.70
2018-10-17T12:53:57.340Z,21.07
2018-10-17T12:56:24.636Z,20.20
2018-10-17T12:58:52.024Z,18.70
2018-10-17T13:01:19.431Z,18.87
2018-10-17T13:03:46.637Z,18.13
2018-10-17T13:06:13.957Z,18.70
2018-10-17T13:08:41.228Z,17.80
2018-10-17T13:11:08.669Z,20.10
2018-10-17T13:13:35.927Z,19.23
2018-10-17T13:16:03.253Z,18.90
2018-10-17T13:18:30.728Z,17.70
2018-10-17T13:20:58.018Z,21.53
2018-10-17T13:23:25.334Z,19.53
2018-10-17T13:25:52.686Z,19.37
2018-10-17T13:28:20.018Z,17.90
2018-10-17T13:30:47.308Z,19.90
2018-10-17T13:33:14.646Z,18.30
2018-10-17T13:35:41.919Z,19.70
2018-10-17T13:38:09.432Z,19.17
2018-10-17T13:40:36.752Z,17.10
2018-10-17T13:43:04.121Z,18.03
2018-10-17T13:45:31.526Z,21.50
2018-10-17T13:47:59.133Z,19.83
2018-10-17T13:50:26.426Z,19.37
2018-10-17T13:52:53.791Z,18.50
2018-10-17T13:55:21.123Z,17.90
2018-10-17T13:57:48.473Z,17.67
2018-10-17T14:00:15.703Z,17.90
2018-10-17T14:02:44.042Z,28.23
2018-10-17T14:05:11.331Z,17.50
2018-10-17T14:07:38.598Z,18.57
2018-10-17T14:10:05.945Z,18.80
2018-10-17T14:12:33.750Z,18.83
2018-10-17T14:15:01.114Z,18.13
2018-10-17T14:17:28.342Z,19.97
2018-10-17T14:19:55.721Z,23.70
2018-10-17T14:22:22.999Z,20.80
2018-10-17T14:24:50.302Z,19.30
2018-10-17T14:27:18.008Z,20.90
2018-10-17T14:29:45.471Z,19.27
2018-10-17T14:32:12.582Z,19.33
2018-10-17T14:34:39.978Z,18.30
2018-10-17T14:37:07.440Z,20.33
2018-10-17T14:39:34.735Z,20.30
2018-10-17T14:42:02.128Z,23.23
2018-10-17T14:44:29.350Z,21.40
2018-10-17T14:46:56.670Z,20.90
2018-10-17T14:49:24.010Z,20.73
2018-10-17T14:51:51.305Z,20.20
2018-10-17T14:54:18.617Z,19.00
2018-10-17T14:56:45.896Z,21.40
2018-10-17T14:59:13.279Z,19.80
2018-10-17T15:01:40.467Z,19.47
2018-10-17T15:04:07.779Z,25.13
2018-10-17T15:06:35.054Z,21.93
2018-10-17T15:09:02.554Z,20.13
2018-10-17T15:11:29.924Z,20.73
2018-10-17T15:13:57.177Z,20.90
2018-10-17T15:16:24.518Z,20.53
2018-10-17T15:18:51.812Z,24.53
2018-10-17T15:21:19.349Z,23.40
2018-10-17T15:23:46.621Z,20.80
2018-10-17T15:26:14.033Z,22.93
2018-10-17T15:28:41.326Z,23.07
2018-10-17T15:31:08.709Z,24.10
2018-10-17T15:33:35.947Z,25.40
2018-10-17T15:36:03.296Z,25.70
2018-10-17T15:38:30.654Z,22.93
2018-10-17T15:40:57.946Z,25.47
2018-10-17T15:43:26.024Z,26.70
2018-10-17T15:45:53.288Z,24.43
2018-10-17T15:48:20.595Z,23.73
2018-10-17T15:50:47.963Z,24.40
2018-10-17T15:53:15.333Z,28.97
2018-10-17T15:55:42.526Z,29.10
2018-10-17T15:58:09.859Z,33.60
2018-10-17T16:00:37.219Z,27.83
2018-10-17T16:03:04.835Z,26.53
2018-10-17T16:05:32.226Z,26.67
2018-10-17T16:10:35.841Z,24.97
2018-10-17T16:13:03.405Z,27.13
2018-10-17T16:15:30.739Z,29.43
2018-10-17T16:17:58.163Z,26.00
2018-10-17T16:20:25.466Z,30.10
2018-10-17T16:22:56.894Z,28.40
2018-10-17T16:25:24.256Z,25.77
2018-10-17T16:27:51.646Z,25.83
2018-10-17T16:30:19.116Z,26.23
2018-10-17T16:32:50.666Z,25.80
2018-10-17T16:35:18.622Z,25.43
2018-10-17T16:37:47.053Z,25.80
2018-10-17T16:40:15.343Z,47.23
2018-10-17T16:45:11.146Z,29.73
2018-10-17T16:47:39.139Z,27.93
2018-10-17T16:50:07.806Z,28.60
2018-10-17T16:52:35.653Z,29.80
2018-10-17T16:55:04.794Z,27.45
2018-10-17T16:57:32.218Z,28.32
2018-10-17T17:02:31.764Z,29.60
2018-10-17T17:04:59.150Z,27.33
2018-10-17T17:07:33.145Z,26.63
2018-10-17T17:10:00.778Z,28.00
2018-10-17T17:12:28.342Z,30.48
2018-10-17T17:14:55.937Z,26.37
2018-10-17T17:17:30.158Z,26.40
2018-10-17T17:19:57.596Z,27.82
2018-10-17T17:22:25.165Z,27.65
2018-10-17T17:24:53.252Z,30.37
2018-10-17T17:29:49.607Z,27.50
2018-10-17T17:32:17.370Z,24.90
2018-10-17T17:34:45.329Z,26.25
2018-10-17T17:37:16.713Z,27.67
2018-10-17T17:39:44.121Z,25.50
2018-10-17T17:42:11.881Z,26.55
2018-10-17T17:44:39.658Z,28.85
2018-10-17T17:47:14.561Z,29.00
2018-10-17T17:49:45.968Z,25.32
2018-10-17T17:52:17.620Z,29.07
2018-10-17T17:54:45.179Z,28.75
2018-10-17T17:57:13.683Z,28.60
2018-10-17T17:59:41.101Z,29.48
2018-10-17T18:02:09.350Z,30.17
2018-10-17T18:04:41.867Z,29.15
2018-10-17T18:07:09.891Z,30.68
2018-10-17T18:09:37.836Z,29.37
2018-10-17T18:12:06.177Z,30.92
2018-10-17T18:14:35.014Z,34.18
2018-10-17T18:17:02.464Z,30.70
2018-10-17T18:19:31.132Z,34.38
2018-10-17T18:21:58.849Z,33.55
2018-10-17T18:24:26.206Z,34.92
2018-10-17T18:26:54.273Z,34.83
2018-10-17T18:29:22.364Z,37.05
2018-10-17T18:31:49.797Z,35.33
2018-10-17T18:34:18.197Z,34.98
2018-10-17T18:36:46.112Z,36.85
2018-10-17T18:39:13.779Z,38.10
2018-10-17T18:41:41.675Z,35.70
2018-10-17T18:44:09.709Z,36.25
2018-10-17T18:46:37.219Z,37.85
2018-10-17T18:49:10.138Z,39.95
2018-10-17T18:51:42.150Z,39.38
2018-10-17T18:54:09.585Z,38.42
2018-10-17T18:56:36.992Z,38.08
2018-10-17T18:59:04.490Z,37.67
2018-10-17T19:01:32.030Z,37.20
2018-10-17T19:04:03.656Z,39.85
2018-10-17T19:06:31.476Z,35.45
2018-10-17T19:09:04.382Z,40.80
2018-10-17T19:11:31.712Z,40.05
2018-10-17T19:13:59.367Z,40.67
2018-10-17T19:16:26.862Z,42.83
2018-10-17T19:18:54.836Z,42.20
2018-10-17T19:21:22.306Z,40.20
2018-10-17T19:23:50.617Z,38.50
2018-10-17T19:26:18.421Z,39.10
2018-10-17T19:28:45.859Z,38.05
2018-10-17T19:31:13.205Z,36.08
2018-10-17T19:33:40.613Z,36.15
2018-10-17T19:36:08.200Z,36.30
2018-10-17T19:38:36.066Z,41.28
2018-10-17T19:41:03.448Z,37.75
2018-10-17T19:43:30.832Z,40.98
2018-10-17T19:46:02.890Z,44.85
2018-10-17T19:48:32.601Z,43.50
2018-10-17T19:51:00.083Z,43.60
2018-10-17T19:53:32.464Z,46.18
2018-10-17T19:55:59.937Z,43.25
2018-10-17T19:58:27.297Z,45.43
2018-10-17T20:00:54.756Z,41.95
2018-10-17T20:03:22.616Z,42.95
2018-10-17T20:05:50.744Z,42.85
2018-10-17T20:08:19.326Z,41.23
2018-10-17T20:10:46.788Z,40.58
2018-10-17T20:13:14.906Z,45.35
2018-10-17T20:15:49.148Z,44.77
2018-10-17T20:18:18.177Z,41.65
2018-10-17T20:20:45.737Z,45.88
2018-10-17T20:23:13.695Z,49.27
2018-10-17T20:25:41.160Z,48.50
2018-10-17T20:28:12.717Z,46.55
2018-10-17T20:30:40.092Z,46.75
2018-10-17T20:33:08.120Z,46.23
2018-10-17T20:35:35.448Z,47.60
2018-10-17T20:38:02.860Z,51.23
2018-10-17T20:40:30.861Z,43.87
2018-10-17T20:42:59.674Z,50.52
2018-10-17T20:45:27.346Z,51.28
2018-10-17T20:47:54.778Z,56.88
2018-10-17T20:50:23.805Z,47.78
2018-10-17T20:52:52.343Z,47.85
2018-10-17T20:55:20.008Z,48.15
2018-10-17T21:00:15.262Z,50.00
2018-10-17T21:02:43.126Z,47.17
2018-10-17T21:05:10.573Z,52.20
2018-10-17T21:07:37.969Z,52.43
2018-10-17T21:10:05.921Z,51.15
2018-10-17T21:12:33.381Z,53.00
2018-10-17T21:15:05.245Z,51.28
2018-10-17T21:17:32.568Z,51.42
2018-10-17T21:20:01.767Z,55.88
2018-10-17T21:22:29.639Z,52.15
2018-10-17T21:24:57.063Z,52.17
2018-10-17T21:27:24.487Z,51.25
2018-10-17T21:29:52.214Z,52.98
2018-10-17T21:32:20.364Z,55.33
2018-10-17T21:34:47.868Z,55.03
2018-10-17T21:37:15.279Z,49.25
2018-10-17T21:39:42.723Z,53.05
2018-10-17T21:42:11.554Z,52.62
2018-10-17T21:44:39.351Z,51.88
2018-10-17T21:49:34.823Z,55.70
2018-10-17T21:52:02.123Z,55.67
2018-10-17T21:54:29.963Z,54.85
2018-10-17T21:56:57.363Z,58.40
2018-10-17T21:59:26.210Z,58.58
2018-10-17T22:01:59.452Z,54.05
2018-10-17T22:04:27.515Z,54.98
2018-10-17T22:06:55.143Z,55.52
2018-10-17T22:09:22.736Z,56.08
2018-10-17T22:11:54.411Z,56.68
2018-10-17T22:14:22.708Z,55.25
2018-10-17T22:16:59.291Z,52.75
2018-10-17T22:19:26.783Z,54.95
2018-10-17T22:21:54.834Z,56.33
2018-10-17T22:24:26.580Z,56.80
2018-10-17T22:26:54.158Z,56.77
2018-10-17T22:29:21.686Z,67.20
2018-10-17T22:31:49.119Z,60.38
2018-10-17T22:34:16.539Z,62.17
2018-10-17T22:36:44.307Z,60.65
2018-10-17T22:39:15.031Z,63.75
2018-10-17T22:41:43.158Z,60.80
2018-10-17T22:44:14.639Z,58.92
2018-10-17T22:46:42.388Z,58.83
2018-10-17T22:49:10.630Z,62.10
2018-10-17T22:51:38.545Z,66.33
2018-10-17T22:54:07.441Z,59.15
2018-10-17T22:56:36.527Z,62.43
2018-10-17T22:59:03.951Z,67.22
2018-10-17T23:01:31.474Z,62.95
2018-10-17T23:03:59.013Z,65.90
2018-10-17T23:06:26.602Z,63.05
2018-10-17T23:08:58.142Z,59.48
2018-10-17T23:11:30.082Z,60.23
2018-10-17T23:13:58.376Z,57.83
2018-10-17T23:16:26.328Z,63.00
2018-10-17T23:18:54.429Z,61.30
2018-10-17T23:21:22.640Z,59.30
2018-10-17T23:23:50.327Z,65.67
2018-10-17T23:26:18.005Z,57.98
2018-10-17T23:28:45.841Z,60.50
2018-10-17T23:31:13.185Z,62.25
2018-10-17T23:33:40.574Z,62.05
2018-10-17T23:36:07.990Z,65.15
2018-10-17T23:38:36.059Z,68.92
2018-10-17T23:41:03.601Z,66.30
2018-10-17T23:43:31.370Z,58.83
2018-10-17T23:45:58.785Z,63.85
2018-10-17T23:48:27.194Z,66.77
2018-10-17T23:50:58.967Z,61.77
2018-10-17T23:53:26.801Z,71.35
2018-10-17T23:55:54.676Z,63.20
2018-10-17T23:58:22.027Z,61.50
